Aeroporto :
LOGIN :

Iscrizione | Disclaimer

   EN    FR    IT 

 










Sommario :    VFR   VFR Marginale   IFR   IFR Intensivo   IFR Molto Intensivo
Visibilità : 
Base nubi : 
>= 8 km
>= 3000ft
5 / 8 km
1000 / 3000 ft
1500m / 5 km
500 / 1000 ft
800 / 1500m
200 / 500 ft
< 800m
< 200 ft
Simboli :   Temporali  Nebbia  Neve Forte  Precipitazioni Forti  Vento > 20 kt
SIGMETs :   Varie  Temporali  Ghiacco  Turbolenza  Onda orograficha  Ceneri Vulcaniche






- Altitudine del aeroporto : 885 ft
- Codice IATA : BAS


LFSB - Bale-Mulhouse

ULTIMO METAR :
  • 250830Z AUTO 05004KT 360V100 CAVOK 23/16 Q1013 NOSIG

METARs OBSOLETI :
  • 250800Z AUTO 01004KT 320V050 CAVOK 22/16 Q1013 NOSIG
  • 250730Z AUTO 33005KT 300V030 CAVOK 21/16 Q1013 NOSIG
  • 250700Z AUTO 33004KT 270V010 CAVOK 19/15 Q1013 NOSIG
  • 250630Z AUTO 34004KT 310V020 CAVOK 19/16 Q1013 NOSIG
  • 250600Z AUTO 34003KT 310V040 CAVOK 18/15 Q1013 NOSIG
  • 250530Z AUTO 33004KT CAVOK 17/15 Q1013 NOSIG
  • 250500Z AUTO VRB03KT CAVOK 17/15 Q1013 NOSIG
  • 250430Z AUTO 27004KT CAVOK 15/14 Q1013 NOSIG
  • 250400Z AUTO 25002KT CAVOK 15/14 Q1013 NOSIG
  • 250330Z AUTO 27002KT CAVOK 15/14 Q1013 NOSIG

TAF AMD TAF LFSB
Valido dal 25 a 06 ore il 26 a 06 ore UTC


250614Z 2506/2606 27003KT CAVOK
BECMG 2507/2510 36005KT
TEMPO 2513/2515 FEW045CB
TEMPO 2515/2520 VRB10G20KT 4500 SHRA SCT040CB
PROB40
TEMPO 2516/2520 VRB15G25KT 2000 TSRA BKN040CB
Met : +33 3 89 90 31 11



MetMap, La meteo Aeronautica in un colpo d'occhio ! - Copyright ORBIFLY Dicembre 2007 - Disclaimer

ORBIFLY MET'MAP TEAM :

Programmazione e sviluppo : Alexandra Zaïnal
Concezione : Baudouin d'Aumeries
Supporto tecnico e logistico : Manuel Goepfert
Aiuto : Marc-Olivier Méhu
Aiuto per la traduzione : Arnaldo La Scala




FONTI E CREDITI :

   NOAA